Pass Lake, Canada
Current Conditions -  °F | °C
As of 6:00 PM on Saturday 22 Nov 2014 (Local Time) from CYQT Reporting Station
Overcast Overcast  
Wind Chill: 36°   Ceiling: 2300
Heat Index: 36°   Visibility: 10mi
Dew Point: 30°   Wind: 3mph
Humidity: 81%   Direction: 90°E
Pressure: 29.66"   Gusts: NA
Location:  48.57°N, 88.73°W
Report Text: CYQT 222300Z 09003KT 10SM OVC023 02/M01 A2966 RMK SC8 SLP056
Loading
Personal Weather Stations






























Interactive Weather Map New forecast layout! Learn more

10-Day Weather Forecast

Advertisements
Track Severe Weather on mobile